createdAt,value
2023-04-17T00:00:38.923Z,102872.63
2023-04-17T00:03:05.709Z,102877.34
2023-04-17T00:05:33.773Z,102885.06
2023-04-17T00:08:00.518Z,102891.19
2023-04-17T00:10:27.491Z,102879.75
2023-04-17T00:12:54.176Z,102878.16
2023-04-17T00:15:21.064Z,102880.00
2023-04-17T00:17:47.716Z,102872.25
2023-04-17T00:20:15.159Z,102884.91
2023-04-17T00:22:41.839Z,102882.69
2023-04-17T00:25:10.628Z,102882.09
2023-04-17T00:27:37.582Z,102882.94
2023-04-17T00:30:04.730Z,102882.09
2023-04-17T00:32:31.719Z,102886.59
2023-04-17T00:34:58.322Z,102889.44
2023-04-17T00:37:24.833Z,102885.00
2023-04-17T00:39:51.377Z,102885.34
2023-04-17T00:42:18.224Z,102887.78
2023-04-17T00:44:44.755Z,102885.72
2023-04-17T00:47:12.675Z,102875.91
2023-04-17T00:49:39.413Z,102882.06
2023-04-17T00:52:06.346Z,102883.88
2023-04-17T00:54:33.508Z,102882.25
2023-04-17T00:57:01.371Z,102874.91
2023-04-17T00:59:28.888Z,102873.50
2023-04-17T01:01:55.506Z,102879.44
2023-04-17T01:04:22.338Z,102872.53
2023-04-17T01:06:48.999Z,102870.69
2023-04-17T01:09:16.187Z,102880.09
2023-04-17T01:14:37.158Z,102885.91
2023-04-17T01:17:04.304Z,102884.50
2023-04-17T01:19:31.519Z,102889.22
2023-04-17T01:21:58.225Z,102886.78
2023-04-17T01:24:24.682Z,102880.91
2023-04-17T01:26:51.402Z,102885.38
2023-04-17T01:29:18.089Z,102889.28
2023-04-17T01:31:44.633Z,102891.31
2023-04-17T01:34:11.204Z,102887.50
2023-04-17T01:36:37.883Z,102886.91
2023-04-17T01:39:04.641Z,102893.22
2023-04-17T01:41:31.278Z,102882.03
2023-04-17T01:43:58.089Z,102897.94
2023-04-17T01:46:25.078Z,102901.59
2023-04-17T01:48:52.366Z,102889.41
2023-04-17T01:51:19.007Z,102892.03
2023-04-17T01:53:45.768Z,102900.00
2023-04-17T01:56:13.760Z,102895.91
2023-04-17T01:58:40.758Z,102902.25
2023-04-17T02:01:07.263Z,102898.78
2023-04-17T02:03:34.081Z,102901.66
2023-04-17T02:06:00.816Z,102901.66
2023-04-17T02:08:27.819Z,102903.25
2023-04-17T02:10:54.735Z,102897.16
2023-04-17T02:13:21.603Z,102902.66
2023-04-17T02:15:48.189Z,102900.84
2023-04-17T02:18:15.082Z,102903.50
2023-04-17T02:20:41.863Z,102895.56
2023-04-17T02:23:08.786Z,102903.06
2023-04-17T02:25:35.791Z,102896.16
2023-04-17T02:28:02.362Z,102902.03
2023-04-17T02:30:29.189Z,102892.66
2023-04-17T02:32:56.429Z,102891.66
2023-04-17T02:35:26.588Z,102899.38
2023-04-17T02:37:53.350Z,102893.50
2023-04-17T02:40:20.121Z,102899.00
2023-04-17T02:42:46.826Z,102889.66
2023-04-17T02:45:13.595Z,102893.31
2023-04-17T02:47:40.428Z,102889.06
2023-04-17T02:50:07.596Z,102905.97
2023-04-17T02:52:34.261Z,102892.72
2023-04-17T02:55:00.784Z,102899.88
2023-04-17T02:57:27.582Z,102899.25
2023-04-17T02:59:54.193Z,102891.31
2023-04-17T03:02:22.297Z,102898.66
2023-04-17T03:04:50.539Z,102897.06
2023-04-17T03:07:23.541Z,102904.16
2023-04-17T03:09:50.406Z,102901.75
2023-04-17T03:12:17.559Z,102896.88
2023-04-17T03:14:44.293Z,102901.75
2023-04-17T03:17:11.969Z,102901.53
2023-04-17T03:19:38.781Z,102903.97
2023-04-17T03:22:06.229Z,102901.13
2023-04-17T03:24:33.389Z,102895.59
2023-04-17T03:27:01.108Z,102898.03
2023-04-17T03:29:28.079Z,102889.47
2023-04-17T03:31:54.796Z,102898.25
2023-04-17T03:34:22.246Z,102896.81
2023-04-17T03:36:48.987Z,102893.16
2023-04-17T03:39:15.843Z,102897.00
2023-04-17T03:41:42.388Z,102902.31
2023-04-17T03:44:09.999Z,102907.59
2023-04-17T03:46:37.485Z,102900.25
2023-04-17T03:49:04.090Z,102907.59
2023-04-17T03:54:26.263Z,102902.91
2023-04-17T03:56:52.853Z,102902.66
2023-04-17T03:59:19.362Z,102905.91
2023-04-17T04:01:47.010Z,102907.34
2023-04-17T04:04:13.881Z,102904.31
2023-04-17T04:06:42.809Z,102908.41
2023-04-17T04:09:09.563Z,102906.19
2023-04-17T04:11:36.412Z,102901.53
2023-04-17T04:14:03.077Z,102907.84
2023-04-17T04:16:29.664Z,102908.47
2023-04-17T04:18:56.271Z,102900.94
2023-04-17T04:21:24.132Z,102909.91
2023-04-17T04:23:51.170Z,102909.09
2023-04-17T04:26:17.984Z,102911.50
2023-04-17T04:28:47.594Z,102917.41
2023-04-17T04:34:13.590Z,102905.59
2023-04-17T04:36:49.841Z,102910.66
2023-04-17T04:39:22.329Z,102911.09
2023-04-17T04:41:52.812Z,102921.09
2023-04-17T04:44:20.411Z,102908.66
2023-04-17T04:46:47.658Z,102909.25
2023-04-17T04:49:14.406Z,102924.50
2023-04-17T04:51:41.189Z,102927.75
2023-04-17T04:54:07.802Z,102923.69
2023-04-17T04:56:34.330Z,102927.59
2023-04-17T04:59:00.885Z,102933.09
2023-04-17T05:01:28.169Z,102924.53
2023-04-17T05:03:55.222Z,102926.81
2023-04-17T05:06:21.853Z,102928.66
2023-04-17T05:08:48.752Z,102935.94
2023-04-17T05:11:15.884Z,102929.63
2023-04-17T05:13:42.569Z,102946.94
2023-04-17T05:16:09.178Z,102940.81
2023-04-17T05:18:35.841Z,102931.84
2023-04-17T05:21:02.442Z,102945.91
2023-04-17T05:23:29.200Z,102947.53
2023-04-17T05:25:55.839Z,102947.31
2023-04-17T05:28:22.497Z,102946.72
2023-04-17T05:33:43.149Z,102953.03
2023-04-17T05:36:09.814Z,102948.78
2023-04-17T05:38:36.606Z,102959.56
2023-04-17T05:43:57.417Z,102948.56
2023-04-17T05:46:24.603Z,102949.38
2023-04-17T05:48:51.303Z,102949.97
2023-04-17T05:51:17.914Z,102953.41
2023-04-17T05:53:44.885Z,102948.94
2023-04-17T05:56:11.831Z,102956.47
2023-04-17T05:58:38.568Z,102950.13
2023-04-17T06:01:06.454Z,102957.84
2023-04-17T06:03:34.435Z,102955.22
2023-04-17T06:06:10.699Z,102966.41
2023-04-17T06:08:37.350Z,102960.31
2023-04-17T06:11:04.132Z,102965.59
2023-04-17T06:13:30.970Z,102966.41
2023-04-17T06:15:57.693Z,102961.31
2023-04-17T06:18:24.505Z,102976.78
2023-04-17T06:26:39.646Z,102987.53
2023-04-17T06:29:06.242Z,102984.88
2023-04-17T06:31:33.008Z,102988.34
2023-04-17T06:33:59.651Z,102989.78
2023-04-17T06:36:27.241Z,102993.00
2023-04-17T06:38:54.039Z,102988.91
2023-04-17T06:41:20.830Z,102993.34
2023-04-17T06:43:47.506Z,102998.41
2023-04-17T06:46:14.496Z,102999.47
2023-04-17T06:48:41.123Z,103001.88
2023-04-17T06:51:07.902Z,103022.50
2023-04-17T06:53:34.651Z,103014.84
2023-04-17T06:56:01.297Z,103014.19
2023-04-17T06:58:27.880Z,103012.66
2023-04-17T07:00:54.417Z,103011.19
2023-04-17T07:03:21.268Z,103017.09
2023-04-17T07:05:48.819Z,103013.69
2023-04-17T07:08:16.095Z,103012.19
2023-04-17T07:11:15.260Z,103031.09
2023-04-17T07:13:42.236Z,103028.22
2023-04-17T07:16:09.254Z,103030.44
2023-04-17T07:18:35.895Z,103025.56
2023-04-17T07:21:02.899Z,103033.66
2023-04-17T07:23:29.508Z,103028.09
2023-04-17T07:25:56.129Z,103032.94
2023-04-17T07:28:23.272Z,103027.63
2023-04-17T07:30:49.906Z,103032.44
2023-04-17T07:33:16.895Z,103038.47
2023-04-17T07:38:40.829Z,103034.00
2023-04-17T07:41:08.057Z,103032.47
2023-04-17T07:43:35.057Z,103035.25
2023-04-17T07:48:56.164Z,103032.47
2023-04-17T07:51:23.132Z,103034.06
2023-04-17T07:53:49.839Z,103045.34
2023-04-17T07:56:19.430Z,103040.19
2023-04-17T07:58:46.508Z,103033.09
2023-04-17T08:01:13.773Z,103040.28
2023-04-17T08:03:42.118Z,103038.59
2023-04-17T08:06:08.899Z,103044.31
2023-04-17T08:08:35.524Z,103037.69
2023-04-17T08:12:06.396Z,103043.38
2023-04-17T08:14:33.985Z,103045.94
2023-04-17T08:17:01.120Z,103038.97
2023-04-17T08:19:37.919Z,103038.41
2023-04-17T08:22:06.528Z,103045.56
2023-04-17T08:24:35.962Z,103039.81
2023-04-17T08:27:06.292Z,103036.41
2023-04-17T08:29:37.946Z,103052.72
2023-04-17T08:32:13.364Z,103051.56
2023-04-17T08:34:42.596Z,103043.69
2023-04-17T08:37:13.122Z,103045.78
2023-04-17T08:39:39.984Z,103051.81
2023-04-17T08:42:16.474Z,103049.50
2023-04-17T08:44:46.219Z,103051.34
2023-04-17T08:47:15.844Z,103048.03
2023-04-17T08:49:44.884Z,103047.81
2023-04-17T08:52:11.687Z,103053.41
2023-04-17T08:55:14.235Z,103044.97
2023-04-17T08:58:05.730Z,103047.56
2023-04-17T09:00:46.997Z,103049.78
2023-04-17T09:03:14.611Z,103044.03
2023-04-17T09:05:48.563Z,103049.13
2023-04-17T09:11:32.841Z,103049.44
2023-04-17T09:14:01.485Z,103045.50
2023-04-17T09:16:29.310Z,103044.69
2023-04-17T09:19:07.012Z,103044.06
2023-04-17T09:21:34.199Z,103053.31
2023-04-17T09:24:01.152Z,103046.84
2023-04-17T09:26:32.198Z,103057.94
2023-04-17T09:29:05.909Z,103051.09
2023-04-17T09:31:34.827Z,103059.78
2023-04-17T09:34:04.241Z,103055.53
2023-04-17T09:36:33.073Z,103060.75
2023-04-17T09:39:06.635Z,103065.94
2023-04-17T09:41:39.483Z,103061.16
2023-04-17T09:44:06.909Z,103061.41
2023-04-17T09:46:44.072Z,103058.13
2023-04-17T09:49:19.675Z,103069.72
2023-04-17T09:51:49.026Z,103059.97
2023-04-17T09:54:19.974Z,103060.44
2023-04-17T09:56:52.237Z,103059.22
2023-04-17T09:59:19.150Z,103061.66
2023-04-17T10:04:43.161Z,103068.41
2023-04-17T10:07:13.653Z,103071.09
2023-04-17T10:09:42.160Z,103063.59
2023-04-17T10:15:13.584Z,103065.41
2023-04-17T10:17:43.880Z,103068.47
2023-04-17T10:20:23.490Z,103070.75
2023-04-17T10:23:01.385Z,103067.47
2023-04-17T10:25:40.346Z,103055.53
2023-04-17T10:28:08.066Z,103052.38
2023-04-17T10:46:14.558Z,103045.13
2023-04-17T10:48:52.861Z,103041.81
2023-04-17T10:51:27.075Z,103034.38
2023-04-17T10:54:10.112Z,103043.25
2023-04-17T10:56:41.012Z,103030.84
2023-04-17T10:59:12.127Z,103026.78
2023-04-17T11:01:59.309Z,103026.25
2023-04-17T11:04:31.780Z,103030.31
2023-04-17T11:06:58.856Z,103027.50
2023-04-17T11:09:28.440Z,103023.41
2023-04-17T11:11:59.791Z,103025.75
2023-04-17T11:14:26.848Z,103014.88
2023-04-17T11:16:53.773Z,103007.59
2023-04-17T11:19:23.333Z,103014.03
2023-04-17T11:21:54.815Z,103010.06
2023-04-17T11:24:28.536Z,103015.72
2023-04-17T11:26:57.018Z,103015.75
2023-04-17T11:29:26.360Z,103004.91
2023-04-17T11:31:54.951Z,103015.94
2023-04-17T11:34:22.306Z,103010.31
2023-04-17T11:36:58.360Z,103010.19
2023-04-17T11:39:28.143Z,103007.81
2023-04-17T11:41:57.035Z,103006.31
2023-04-17T11:44:24.297Z,103005.84
2023-04-17T11:46:52.175Z,103005.38
2023-04-17T11:49:29.077Z,102993.94
2023-04-17T11:52:01.408Z,102986.28
2023-04-17T11:54:29.790Z,102989.84
2023-04-17T11:57:03.692Z,102989.84
2023-04-17T11:59:39.459Z,102986.63
2023-04-17T12:02:07.938Z,102983.97
2023-04-17T12:04:36.689Z,102993.13
2023-04-17T12:07:08.317Z,102995.81
2023-04-17T12:09:36.021Z,102994.75
2023-04-17T12:12:07.621Z,102997.69
2023-04-17T12:14:35.013Z,103001.47
2023-04-17T12:17:01.845Z,103003.06
2023-04-17T12:19:30.022Z,102996.38
2023-04-17T12:21:57.642Z,103001.44
2023-04-17T12:24:25.344Z,103001.47
2023-04-17T12:26:53.176Z,103003.31
2023-04-17T12:29:26.566Z,103003.59
2023-04-17T12:32:00.122Z,103002.50
2023-04-17T12:34:28.125Z,103005.41
2023-04-17T12:36:54.769Z,103000.34
2023-04-17T12:39:21.543Z,102998.78
2023-04-17T12:41:48.188Z,102999.31
2023-04-17T12:44:14.996Z,102999.09
2023-04-17T12:46:42.146Z,103005.28
2023-04-17T12:49:09.201Z,103005.31
2023-04-17T12:51:38.152Z,103003.38
2023-04-17T12:54:05.546Z,103006.59
2023-04-17T12:56:32.495Z,103007.13
2023-04-17T12:59:01.427Z,103012.25
2023-04-17T13:04:24.271Z,102989.75
2023-04-17T13:06:54.117Z,102992.69
2023-04-17T13:09:20.873Z,102997.22
2023-04-17T13:12:19.615Z,103003.38
2023-04-17T13:14:46.326Z,102998.31
2023-04-17T13:17:15.110Z,102991.34
2023-04-17T13:19:43.419Z,102986.50
2023-04-17T13:22:10.973Z,102984.38
2023-04-17T13:24:37.832Z,102985.19
2023-04-17T13:27:04.627Z,102982.50
2023-04-17T13:29:31.527Z,102987.31
2023-04-17T13:31:58.171Z,102995.88
2023-04-17T13:34:25.112Z,102989.97
2023-04-17T13:36:51.906Z,102981.41
2023-04-17T13:39:18.736Z,102980.63
2023-04-17T13:41:45.932Z,102982.22
2023-04-17T13:44:13.844Z,102967.19
2023-04-17T13:46:42.734Z,102973.38
2023-04-17T13:49:09.692Z,102962.84
2023-04-17T13:51:37.209Z,102963.91
2023-04-17T13:54:03.993Z,102963.31
2023-04-17T13:56:31.101Z,102958.97
2023-04-17T13:58:58.209Z,102954.63
2023-04-17T14:01:25.159Z,102944.88
2023-04-17T14:03:51.814Z,102950.88
2023-04-17T14:06:18.592Z,102958.16
2023-04-17T14:08:46.371Z,102949.25
2023-04-17T14:11:16.486Z,102943.03
2023-04-17T14:13:43.327Z,102943.06
2023-04-17T14:16:15.293Z,102939.56
2023-04-17T14:18:42.074Z,102945.16
2023-04-17T14:21:08.748Z,102937.72
2023-04-17T14:23:35.555Z,102938.25
2023-04-17T14:26:02.336Z,102938.25
2023-04-17T14:28:29.010Z,102945.50
2023-04-17T14:31:00.731Z,102942.28
2023-04-17T14:33:27.305Z,102930.75
2023-04-17T14:36:00.191Z,102922.16
2023-04-17T14:38:27.315Z,102934.81
2023-04-17T14:40:56.812Z,102929.97
2023-04-17T14:43:23.495Z,102926.47
2023-04-17T14:45:51.402Z,102928.81
2023-04-17T14:48:20.903Z,102925.53
2023-04-17T14:50:47.714Z,102921.78
2023-04-17T14:53:14.354Z,102924.16
2023-04-17T14:55:41.435Z,102907.81
2023-04-17T14:58:08.483Z,102916.09
2023-04-17T15:00:35.356Z,102921.78
2023-04-17T15:03:02.677Z,102918.84
2023-04-17T15:08:23.705Z,102922.06
2023-04-17T15:12:26.249Z,102912.44
2023-04-17T15:14:53.485Z,102920.59
2023-04-17T15:17:21.837Z,102910.13
2023-04-17T15:19:50.064Z,102914.44
2023-04-17T15:22:17.192Z,102912.31
2023-04-17T15:24:44.623Z,102917.41
2023-04-17T15:27:11.968Z,102916.06
2023-04-17T15:29:39.471Z,102915.25
2023-04-17T15:32:06.402Z,102922.00
2023-04-17T15:34:34.898Z,102926.59
2023-04-17T15:37:01.664Z,102911.34
2023-04-17T15:39:28.257Z,102917.56
2023-04-17T15:41:55.902Z,102920.25
2023-04-17T15:44:22.618Z,102917.28
2023-04-17T15:46:49.265Z,102910.59
2023-04-17T15:49:16.334Z,102917.28
2023-04-17T15:51:42.950Z,102910.59
2023-04-17T15:54:12.003Z,102909.56
2023-04-17T15:56:39.446Z,102914.59
2023-04-17T15:59:06.050Z,102907.91
2023-04-17T16:01:32.589Z,102915.41
2023-04-17T16:03:59.431Z,102918.34
2023-04-17T16:06:27.875Z,102906.81
2023-04-17T16:08:54.446Z,102904.66
2023-04-17T16:11:21.252Z,102901.16
2023-04-17T16:13:48.005Z,102901.38
2023-04-17T16:16:14.972Z,102902.19
2023-04-17T16:18:53.104Z,102897.56
2023-04-17T16:21:19.861Z,102900.78
2023-04-17T16:23:48.785Z,102898.41
2023-04-17T16:26:15.933Z,102898.13
2023-04-17T16:28:43.523Z,102895.22
2023-04-17T16:31:11.458Z,102888.22
2023-04-17T16:33:39.755Z,102900.91
2023-04-17T16:36:06.482Z,102907.13
2023-04-17T16:38:35.610Z,102894.78
2023-04-17T16:41:03.545Z,102903.34
2023-04-17T16:43:31.191Z,102898.81
2023-04-17T16:45:58.479Z,102896.94
2023-04-17T16:48:26.421Z,102900.16
2023-04-17T16:50:53.201Z,102903.38
2023-04-17T16:53:21.298Z,102892.09
2023-04-17T16:55:48.724Z,102902.28
2023-04-17T16:58:15.459Z,102899.06
2023-04-17T17:00:42.136Z,102900.44
2023-04-17T17:03:12.213Z,102897.72
2023-04-17T17:05:39.040Z,102902.59
2023-04-17T17:08:05.999Z,102903.13
2023-04-17T17:10:42.600Z,102899.34
2023-04-17T17:13:09.543Z,102898.84
2023-04-17T17:15:41.281Z,102899.88
2023-04-17T17:18:08.765Z,102905.50
2023-04-17T17:23:29.885Z,102909.53
2023-04-17T17:25:56.465Z,102903.66
2023-04-17T17:28:23.050Z,102900.44
2023-04-17T17:30:49.716Z,102900.69
2023-04-17T17:33:17.218Z,102901.22
2023-04-17T17:38:38.053Z,102902.56
2023-04-17T17:41:12.007Z,102910.34
2023-04-17T17:43:38.578Z,102900.97
2023-04-17T17:46:05.630Z,102902.28
2023-04-17T17:48:34.363Z,102904.44
2023-04-17T17:51:01.134Z,102907.63
2023-04-17T17:53:27.740Z,102901.22
2023-04-17T17:55:55.947Z,102899.59
2023-04-17T17:58:23.235Z,102904.97
2023-04-17T18:03:48.741Z,102898.25
2023-04-17T18:06:16.632Z,102900.38
2023-04-17T18:08:43.273Z,102901.44
2023-04-17T18:11:09.937Z,102899.06
2023-04-17T18:13:36.741Z,102910.00
2023-04-17T18:19:04.688Z,102907.06
2023-04-17T18:21:32.191Z,102921.22
2023-04-17T18:23:58.855Z,102919.63
2023-04-17T18:26:25.695Z,102921.75
2023-04-17T18:28:52.184Z,102925.47
2023-04-17T18:31:21.800Z,102920.31
2023-04-17T18:33:48.524Z,102926.72
2023-04-17T18:39:09.467Z,102923.94
2023-04-17T18:41:36.138Z,102927.66
2023-04-17T18:44:04.185Z,102936.66
2023-04-17T18:46:30.873Z,102931.84
2023-04-17T18:48:58.275Z,102939.56
2023-04-17T18:51:24.889Z,102937.19
2023-04-17T18:53:51.732Z,102936.31
2023-04-17T18:56:18.398Z,102938.38
2023-04-17T18:58:45.178Z,102941.59
2023-04-17T19:01:11.791Z,102937.81
2023-04-17T19:03:38.932Z,102939.13
2023-04-17T19:06:06.758Z,102939.31
2023-04-17T19:08:33.593Z,102943.78
2023-04-17T19:11:00.180Z,102942.19
2023-04-17T19:13:26.896Z,102945.59
2023-04-17T19:15:53.690Z,102949.06
2023-04-17T19:18:20.600Z,102955.72
2023-04-17T19:20:47.958Z,102959.94
2023-04-17T19:23:14.904Z,102954.59
2023-04-17T19:25:44.586Z,102966.84
2023-04-17T19:28:11.489Z,102965.16
2023-04-17T19:30:43.319Z,102964.56
2023-04-17T19:33:10.873Z,102965.94
2023-04-17T19:35:47.148Z,102960.03
2023-04-17T19:38:16.254Z,102966.69
2023-04-17T19:43:42.455Z,102976.72
2023-04-17T19:46:09.436Z,102962.78
2023-04-17T19:48:37.540Z,102971.84
2023-04-17T19:51:06.439Z,102974.47
2023-04-17T19:53:37.833Z,102977.34
2023-04-17T19:56:08.130Z,102965.59
2023-04-17T19:58:36.241Z,102976.66
2023-04-17T20:01:03.657Z,102974.31
2023-04-17T20:03:31.266Z,102976.66
2023-04-17T20:08:52.482Z,102976.72
2023-04-17T20:11:19.239Z,102971.88
2023-04-17T20:13:47.068Z,102978.56
2023-04-17T20:16:13.695Z,102974.75
2023-04-17T20:18:41.971Z,102985.06
2023-04-17T20:21:08.590Z,102983.84
2023-04-17T20:23:35.123Z,102989.00
2023-04-17T20:26:03.462Z,102984.34
2023-04-17T20:28:30.204Z,102979.13
2023-04-17T20:30:56.827Z,102981.09
2023-04-17T20:33:23.583Z,102983.66
2023-04-17T20:38:45.345Z,102975.63
2023-04-17T20:41:11.785Z,102979.50
2023-04-17T20:43:38.647Z,102980.72
2023-04-17T20:46:06.860Z,102980.03
2023-04-17T20:48:33.572Z,102977.75
2023-04-17T20:51:05.561Z,102987.97
2023-04-17T20:53:32.797Z,102984.41
2023-04-17T20:55:59.714Z,102982.13
2023-04-17T20:58:26.973Z,102982.59
2023-04-17T21:03:48.390Z,102984.25
2023-04-17T21:06:15.179Z,102976.97
2023-04-17T21:08:44.263Z,102985.91
2023-04-17T21:15:10.141Z,102984.06
2023-04-17T21:17:36.821Z,102985.00
2023-04-17T21:20:07.057Z,102976.66
2023-04-17T21:22:33.957Z,102980.03
2023-04-17T21:25:00.509Z,102984.44
2023-04-17T21:27:27.005Z,102980.63
2023-04-17T21:29:55.778Z,102973.31
2023-04-17T21:32:22.457Z,102969.38
2023-04-17T21:34:49.070Z,102971.47
2023-04-17T21:37:15.661Z,102973.75
2023-04-17T21:39:42.274Z,102971.81
2023-04-17T21:45:04.483Z,102984.06
2023-04-17T21:47:31.112Z,102980.47
2023-04-17T21:50:00.306Z,102981.50
2023-04-17T21:52:27.232Z,102977.13
2023-04-17T21:54:53.873Z,102982.66
2023-04-17T21:57:23.632Z,102983.34
2023-04-17T21:59:50.207Z,102984.84
2023-04-17T22:02:16.748Z,102987.13
2023-04-17T22:04:43.870Z,102987.81
2023-04-17T22:07:10.573Z,102982.94
2023-04-17T22:09:37.390Z,102981.78
2023-04-17T22:12:11.923Z,102989.16
2023-04-17T22:14:38.973Z,102987.19
2023-04-17T22:17:05.611Z,102991.13
2023-04-17T22:19:32.625Z,102989.75
2023-04-17T22:22:17.438Z,102980.59
2023-04-17T22:25:02.975Z,102982.09
2023-04-17T22:27:48.190Z,102986.44
2023-04-17T22:30:33.330Z,102994.06
2023-04-17T22:33:37.762Z,102985.75
2023-04-17T22:37:00.733Z,102991.50
2023-04-17T22:40:04.972Z,102992.53
2023-04-17T22:42:31.616Z,102991.97
2023-04-17T22:45:17.271Z,103000.72
2023-04-17T22:47:43.975Z,102991.13
2023-04-17T22:50:30.636Z,102992.16
2023-04-17T22:53:15.852Z,102994.38
2023-04-17T22:55:42.535Z,102996.38
2023-04-17T22:58:27.578Z,102999.59
2023-04-17T23:00:54.094Z,102988.41
2023-04-17T23:03:58.623Z,103000.84
2023-04-17T23:07:02.481Z,102986.97
2023-04-17T23:09:29.121Z,102988.47
2023-04-17T23:11:56.365Z,102988.56
2023-04-17T23:14:23.132Z,102992.69
2023-04-17T23:16:50.086Z,102988.22
2023-04-17T23:19:16.741Z,102991.88
2023-04-17T23:21:43.494Z,102985.63
2023-04-17T23:24:10.315Z,103001.41
2023-04-17T23:26:37.421Z,102994.72
2023-04-17T23:29:04.382Z,102994.34
2023-04-17T23:31:31.054Z,102993.97
2023-04-17T23:33:57.732Z,102991.78
2023-04-17T23:36:24.401Z,102994.84
2023-04-17T23:38:51.012Z,103002.81
2023-04-17T23:41:17.821Z,103000.38
2023-04-17T23:43:44.448Z,103000.63
2023-04-17T23:46:11.024Z,103004.09
2023-04-17T23:48:37.657Z,103007.53
2023-04-17T23:51:04.498Z,103003.28
2023-04-17T23:53:31.047Z,102994.94
2023-04-17T23:55:58.023Z,102994.34
2023-04-17T23:58:24.711Z,102995.41
